sensor_id;sensor_type;location;lat;lon;timestamp;pressure;altitude;pressure_sealevel;temperature;humidity
76609;BME280;65928;53.936;27.540;2023-01-31T00:00:04;96696.66;;;-1.09;73.70
76609;BME280;65928;53.936;27.540;2023-01-31T00:02:32;97192.16;;;1.57;74.01
76609;BME280;65928;53.936;27.540;2023-01-31T00:04:58;96883.66;;;-0.16;73.93
76609;BME280;65928;53.936;27.540;2023-01-31T00:07:24;96835.13;;;-0.54;74.35
76609;BME280;65928;53.936;27.540;2023-01-31T00:09:49;97328.84;;;2.04;74.94
76609;BME280;65928;53.936;27.540;2023-01-31T00:12:15;97276.91;;;2.20;74.67
76609;BME280;65928;53.936;27.540;2023-01-31T00:14:40;96824.31;;;-0.44;74.31
76609;BME280;65928;53.936;27.540;2023-01-31T00:17:06;97251.28;;;2.11;74.42
76609;BME280;65928;53.936;27.540;2023-01-31T00:19:31;96729.22;;;-1.04;74.09
76609;BME280;65928;53.936;27.540;2023-01-31T00:21:57;96739.50;;;-1.22;74.99
76609;BME280;65928;53.936;27.540;2023-01-31T00:24:22;97286.28;;;2.24;75.52
76609;BME280;65928;53.936;27.540;2023-01-31T00:26:48;96787.31;;;-0.87;75.08
76609;BME280;65928;53.936;27.540;2023-01-31T00:29:21;97036.72;;;1.05;74.24
76609;BME280;65928;53.936;27.540;2023-01-31T00:31:47;97293.72;;;2.31;74.83
76609;BME280;65928;53.936;27.540;2023-01-31T00:34:12;96779.81;;;-0.95;74.74
76609;BME280;65928;53.936;27.540;2023-01-31T00:36:38;96862.63;;;-0.30;74.64
76609;BME280;65928;53.936;27.540;2023-01-31T00:39:05;97273.69;;;2.15;75.02
76609;BME280;65928;53.936;27.540;2023-01-31T00:41:31;97258.94;;;2.51;74.16
76609;BME280;65928;53.936;27.540;2023-01-31T00:43:57;96867.41;;;-0.01;73.64
76609;BME280;65928;53.936;27.540;2023-01-31T00:46:22;97272.97;;;2.48;73.86
76609;BME280;65928;53.936;27.540;2023-01-31T00:48:48;96770.69;;;-0.43;73.86
76609;BME280;65928;53.936;27.540;2023-01-31T00:51:14;96770.03;;;-0.48;73.47
76609;BME280;65928;53.936;27.540;2023-01-31T00:53:40;97171.03;;;1.81;73.79
76609;BME280;65928;53.936;27.540;2023-01-31T00:56:08;97253.53;;;2.18;73.92
76609;BME280;65928;53.936;27.540;2023-01-31T00:58:35;97223.63;;;2.27;73.97
76609;BME280;65928;53.936;27.540;2023-01-31T01:01:12;97213.63;;;1.99;74.07
76609;BME280;65928;53.936;27.540;2023-01-31T01:03:39;97093.72;;;1.28;74.22
76609;BME280;65928;53.936;27.540;2023-01-31T01:06:06;96773.81;;;-0.55;73.44
76609;BME280;65928;53.936;27.540;2023-01-31T01:08:33;97236.78;;;2.05;73.71
76609;BME280;65928;53.936;27.540;2023-01-31T01:11:13;97174.06;;;1.72;73.72
76609;BME280;65928;53.936;27.540;2023-01-31T01:13:40;96757.28;;;-0.53;73.26
76609;BME280;65928;53.936;27.540;2023-01-31T01:16:08;96843.88;;;-0.17;72.84
76609;BME280;65928;53.936;27.540;2023-01-31T01:18:35;96771.47;;;-0.23;72.37
76609;BME280;65928;53.936;27.540;2023-01-31T01:21:12;97364.88;;;2.70;72.51
76609;BME280;65928;53.936;27.540;2023-01-31T01:23:39;97280.34;;;2.57;72.45
76609;BME280;65928;53.936;27.540;2023-01-31T01:26:07;96787.84;;;-0.41;72.40
76609;BME280;65928;53.936;27.540;2023-01-31T01:28:36;97082.59;;;1.61;72.00
76609;BME280;65928;53.936;27.540;2023-01-31T01:31:09;97359.59;;;2.91;72.00
76609;BME280;65928;53.936;27.540;2023-01-31T01:33:35;97308.94;;;2.22;72.65
76609;BME280;65928;53.936;27.540;2023-01-31T01:36:02;97262.63;;;2.83;72.09
76609;BME280;65928;53.936;27.540;2023-01-31T01:38:28;97289.66;;;2.99;71.87
76609;BME280;65928;53.936;27.540;2023-01-31T01:40:54;96886.31;;;0.21;72.58
76609;BME280;65928;53.936;27.540;2023-01-31T01:43:19;96847.22;;;0.06;72.38
76609;BME280;65928;53.936;27.540;2023-01-31T01:45:45;96953.19;;;0.55;72.60
76609;BME280;65928;53.936;27.540;2023-01-31T01:48:14;96802.19;;;-0.32;72.85
76609;BME280;65928;53.936;27.540;2023-01-31T01:50:45;96787.47;;;-0.32;72.26
76609;BME280;65928;53.936;27.540;2023-01-31T01:53:15;97244.41;;;2.10;73.64
76609;BME280;65928;53.936;27.540;2023-01-31T02:00:44;96801.59;;;-0.79;73.23
76609;BME280;65928;53.936;27.540;2023-01-31T02:03:11;96828.91;;;-0.50;73.50
76609;BME280;65928;53.936;27.540;2023-01-31T02:05:44;97048.84;;;0.85;72.59
76609;BME280;65928;53.936;27.540;2023-01-31T02:08:14;96797.00;;;-0.52;72.18
76609;BME280;65928;53.936;27.540;2023-01-31T02:13:20;97234.47;;;1.99;73.13
76609;BME280;65928;53.936;27.540;2023-01-31T02:15:46;96823.09;;;-0.17;71.95
76609;BME280;65928;53.936;27.540;2023-01-31T02:18:12;96804.25;;;-0.40;72.39
76609;BME280;65928;53.936;27.540;2023-01-31T02:27:02;97301.69;;;2.47;72.56
76609;BME280;65928;53.936;27.540;2023-01-31T02:35:11;96908.50;;;0.28;71.91
76609;BME280;65928;53.936;27.540;2023-01-31T02:40:58;96813.13;;;-0.26;72.34
76609;BME280;65928;53.936;27.540;2023-01-31T02:43:58;97366.97;;;2.64;72.49
76609;BME280;65928;53.936;27.540;2023-01-31T02:46:56;97215.53;;;1.96;72.35
76609;BME280;65928;53.936;27.540;2023-01-31T02:49:35;97337.06;;;2.34;72.62
76609;BME280;65928;53.936;27.540;2023-01-31T02:52:30;97321.09;;;2.96;72.02
76609;BME280;65928;53.936;27.540;2023-01-31T02:58:17;96974.19;;;0.50;72.89
76609;BME280;65928;53.936;27.540;2023-01-31T03:00:45;96937.97;;;0.66;71.97
76609;BME280;65928;53.936;27.540;2023-01-31T03:03:18;97375.66;;;3.00;71.90
76609;BME280;65928;53.936;27.540;2023-01-31T03:06:06;97229.31;;;2.16;72.72
76609;BME280;65928;53.936;27.540;2023-01-31T03:08:33;97114.00;;;1.40;73.63
76609;BME280;65928;53.936;27.540;2023-01-31T03:11:03;97246.09;;;1.92;74.73
76609;BME280;65928;53.936;27.540;2023-01-31T03:13:34;97353.97;;;2.62;74.73
76609;BME280;65928;53.936;27.540;2023-01-31T03:16:13;97290.38;;;2.48;74.82
76609;BME280;65928;53.936;27.540;2023-01-31T03:21:55;97228.81;;;2.27;74.26
76609;BME280;65928;53.936;27.540;2023-01-31T03:24:22;96981.75;;;0.16;76.53
76609;BME280;65928;53.936;27.540;2023-01-31T03:26:54;97319.94;;;2.28;75.96
76609;BME280;65928;53.936;27.540;2023-01-31T03:29:22;96826.31;;;-1.12;77.12
76609;BME280;65928;53.936;27.540;2023-01-31T03:31:53;97375.81;;;2.03;77.96
76609;BME280;65928;53.936;27.540;2023-01-31T03:34:20;97350.78;;;2.19;77.85
76609;BME280;65928;53.936;27.540;2023-01-31T03:37:07;97373.53;;;2.15;78.34
76609;BME280;65928;53.936;27.540;2023-01-31T03:42:24;97418.28;;;2.43;77.35
76609;BME280;65928;53.936;27.540;2023-01-31T03:45:14;96959.66;;;-0.34;77.70
76609;BME280;65928;53.936;27.540;2023-01-31T03:47:45;96866.66;;;-0.85;77.37
76609;BME280;65928;53.936;27.540;2023-01-31T03:55:42;97262.75;;;1.88;77.16
76609;BME280;65928;53.936;27.540;2023-01-31T03:58:12;97257.59;;;1.48;77.86
76609;BME280;65928;53.936;27.540;2023-01-31T04:00:41;97342.28;;;2.34;77.04
76609;BME280;65928;53.936;27.540;2023-01-31T04:03:19;97318.03;;;2.13;76.79
76609;BME280;65928;53.936;27.540;2023-01-31T04:05:47;97354.50;;;2.13;77.30
76609;BME280;65928;53.936;27.540;2023-01-31T04:08:14;97352.06;;;2.47;76.41
76609;BME280;65928;53.936;27.540;2023-01-31T04:10:39;97352.19;;;2.07;77.30
76609;BME280;65928;53.936;27.540;2023-01-31T04:13:05;97361.13;;;2.20;76.54
76609;BME280;65928;53.936;27.540;2023-01-31T04:15:31;97334.09;;;2.23;77.02
76609;BME280;65928;53.936;27.540;2023-01-31T04:17:57;97263.75;;;1.65;76.05
76609;BME280;65928;53.936;27.540;2023-01-31T04:20:22;97366.34;;;2.20;76.79
76609;BME280;65928;53.936;27.540;2023-01-31T04:22:48;97373.13;;;2.24;77.49
76609;BME280;65928;53.936;27.540;2023-01-31T04:25:13;97392.41;;;2.20;77.26
76609;BME280;65928;53.936;27.540;2023-01-31T04:27:39;96879.03;;;-0.50;76.76
76609;BME280;65928;53.936;27.540;2023-01-31T04:30:05;96851.47;;;-0.32;75.53
76609;BME280;65928;53.936;27.540;2023-01-31T04:32:31;97363.63;;;2.23;77.08
76609;BME280;65928;53.936;27.540;2023-01-31T04:34:57;97367.53;;;2.13;77.31
76609;BME280;65928;53.936;27.540;2023-01-31T04:37:22;96972.66;;;-0.14;76.99
76609;BME280;65928;53.936;27.540;2023-01-31T04:39:47;96843.81;;;-0.97;76.90
76609;BME280;65928;53.936;27.540;2023-01-31T04:42:13;97377.94;;;2.52;76.96
76609;BME280;65928;53.936;27.540;2023-01-31T04:44:39;96966.09;;;-0.03;76.75
76609;BME280;65928;53.936;27.540;2023-01-31T04:47:04;97385.34;;;2.61;76.54
76609;BME280;65928;53.936;27.540;2023-01-31T04:49:30;97284.03;;;1.98;76.11
76609;BME280;65928;53.936;27.540;2023-01-31T04:51:55;96989.63;;;0.33;76.18
76609;BME280;65928;53.936;27.540;2023-01-31T04:54:21;97065.31;;;0.66;75.66
76609;BME280;65928;53.936;27.540;2023-01-31T04:56:46;97410.34;;;2.65;76.30
76609;BME280;65928;53.936;27.540;2023-01-31T04:59:12;96973.44;;;-0.12;76.18
76609;BME280;65928;53.936;27.540;2023-01-31T05:01:37;97330.22;;;2.13;75.87
76609;BME280;65928;53.936;27.540;2023-01-31T05:04:03;97263.03;;;1.62;76.38
76609;BME280;65928;53.936;27.540;2023-01-31T05:06:28;96938.16;;;-0.58;76.68
76609;BME280;65928;53.936;27.540;2023-01-31T05:08:54;96926.41;;;-0.46;76.48
76609;BME280;65928;53.936;27.540;2023-01-31T05:11:20;97343.66;;;1.83;76.95
76609;BME280;65928;53.936;27.540;2023-01-31T05:13:45;96969.03;;;-0.52;77.26
76609;BME280;65928;53.936;27.540;2023-01-31T05:16:12;97426.09;;;2.05;77.90
76609;BME280;65928;53.936;27.540;2023-01-31T05:18:38;96953.59;;;-0.76;77.91
76609;BME280;65928;53.936;27.540;2023-01-31T05:21:05;97439.81;;;2.08;78.75
76609;BME280;65928;53.936;27.540;2023-01-31T05:23:31;97425.09;;;1.87;78.79
76609;BME280;65928;53.936;27.540;2023-01-31T05:25:57;97054.84;;;-0.36;78.56
76609;BME280;65928;53.936;27.540;2023-01-31T05:28:23;97098.81;;;0.10;77.98
76609;BME280;65928;53.936;27.540;2023-01-31T05:30:53;96956.25;;;-0.78;78.32
76609;BME280;65928;53.936;27.540;2023-01-31T05:33:19;96918.16;;;-0.98;78.32
76609;BME280;65928;53.936;27.540;2023-01-31T05:35:48;97420.31;;;1.98;78.18
76609;BME280;65928;53.936;27.540;2023-01-31T05:38:13;97085.81;;;-0.10;78.81
76609;BME280;65928;53.936;27.540;2023-01-31T05:40:39;97467.97;;;2.20;78.79
76609;BME280;65928;53.936;27.540;2023-01-31T05:43:04;97461.06;;;2.19;78.24
76609;BME280;65928;53.936;27.540;2023-01-31T05:45:30;96969.00;;;-0.72;77.97
76609;BME280;65928;53.936;27.540;2023-01-31T05:47:56;97470.44;;;2.23;78.34
76609;BME280;65928;53.936;27.540;2023-01-31T05:50:22;97456.56;;;2.03;78.06
76609;BME280;65928;53.936;27.540;2023-01-31T05:52:49;97479.94;;;2.24;78.38
76609;BME280;65928;53.936;27.540;2023-01-31T05:55:15;97470.44;;;2.23;78.52
76609;BME280;65928;53.936;27.540;2023-01-31T05:57:40;97466.31;;;2.38;78.61
76609;BME280;65928;53.936;27.540;2023-01-31T06:00:06;97084.97;;;-0.11;78.41
76609;BME280;65928;53.936;27.540;2023-01-31T06:02:32;97479.88;;;2.26;78.29
76609;BME280;65928;53.936;27.540;2023-01-31T06:04:57;96991.50;;;-0.52;77.92
76609;BME280;65928;53.936;27.540;2023-01-31T06:07:23;97512.56;;;2.13;78.14
76609;BME280;65928;53.936;27.540;2023-01-31T06:09:48;97007.09;;;-0.74;78.41
76609;BME280;65928;53.936;27.540;2023-01-31T06:12:14;97047.56;;;-0.27;78.07
76609;BME280;65928;53.936;27.540;2023-01-31T06:14:39;96957.38;;;-1.07;78.54
76609;BME280;65928;53.936;27.540;2023-01-31T06:17:05;97368.44;;;1.52;78.69
76609;BME280;65928;53.936;27.540;2023-01-31T06:19:31;97506.16;;;2.21;78.98
76609;BME280;65928;53.936;27.540;2023-01-31T06:21:56;97067.75;;;-0.35;78.43
76609;BME280;65928;53.936;27.540;2023-01-31T06:24:21;97512.97;;;2.24;78.66
76609;BME280;65928;53.936;27.540;2023-01-31T06:26:47;96979.44;;;-0.97;78.74
76609;BME280;65928;53.936;27.540;2023-01-31T06:29:13;97515.19;;;2.33;78.34
76609;BME280;65928;53.936;27.540;2023-01-31T06:31:38;97507.50;;;2.10;77.97
76609;BME280;65928;53.936;27.540;2023-01-31T06:34:07;97538.19;;;2.43;77.88
76609;BME280;65928;53.936;27.540;2023-01-31T06:36:32;97032.34;;;-0.57;78.24
76609;BME280;65928;53.936;27.540;2023-01-31T06:38:58;97443.00;;;1.74;78.75
76609;BME280;65928;53.936;27.540;2023-01-31T06:41:24;97350.13;;;1.13;79.17
76609;BME280;65928;53.936;27.540;2023-01-31T06:43:49;97287.56;;;0.96;77.47
76609;BME280;65928;53.936;27.540;2023-01-31T06:46:16;97488.22;;;2.14;77.71
76609;BME280;65928;53.936;27.540;2023-01-31T06:48:41;97440.88;;;1.84;77.99
76609;BME280;65928;53.936;27.540;2023-01-31T06:51:08;97150.03;;;0.07;77.23
76609;BME280;65928;53.936;27.540;2023-01-31T06:53:34;97613.22;;;2.77;76.90
76609;BME280;65928;53.936;27.540;2023-01-31T06:56:00;97562.75;;;2.78;77.03
76609;BME280;65928;53.936;27.540;2023-01-31T06:58:25;97474.53;;;2.29;76.18
76609;BME280;65928;53.936;27.540;2023-01-31T07:00:51;97096.66;;;0.21;75.84
76609;BME280;65928;53.936;27.540;2023-01-31T07:03:16;97281.53;;;1.16;76.57
76609;BME280;65928;53.936;27.540;2023-01-31T07:05:44;97068.22;;;-0.04;76.46
76609;BME280;65928;53.936;27.540;2023-01-31T07:08:10;97148.63;;;0.41;75.86
76609;BME280;65928;53.936;27.540;2023-01-31T07:10:35;97457.19;;;2.48;75.85
76609;BME280;65928;53.936;27.540;2023-01-31T07:13:01;97081.97;;;0.00;76.46
76609;BME280;65928;53.936;27.540;2023-01-31T07:15:26;97106.38;;;0.16;75.60
76609;BME280;65928;53.936;27.540;2023-01-31T07:17:58;97500.91;;;2.41;76.49
76609;BME280;65928;53.936;27.540;2023-01-31T07:20:24;97564.97;;;2.47;76.71
76609;BME280;65928;53.936;27.540;2023-01-31T07:22:54;97363.31;;;1.50;76.97
76609;BME280;65928;53.936;27.540;2023-01-31T07:25:20;97625.25;;;3.00;76.34
76609;BME280;65928;53.936;27.540;2023-01-31T07:27:45;97209.44;;;0.57;76.41
76609;BME280;65928;53.936;27.540;2023-01-31T07:30:11;97194.88;;;0.53;75.93
76609;BME280;65928;53.936;27.540;2023-01-31T07:32:36;97215.28;;;0.62;76.96
76609;BME280;65928;53.936;27.540;2023-01-31T07:35:02;97545.75;;;2.49;76.87
76609;BME280;65928;53.936;27.540;2023-01-31T07:37:28;97657.56;;;2.77;76.87
76609;BME280;65928;53.936;27.540;2023-01-31T07:39:53;97201.19;;;0.48;77.32
76609;BME280;65928;53.936;27.540;2023-01-31T07:42:19;97631.06;;;2.86;77.40
76609;BME280;65928;53.936;27.540;2023-01-31T07:44:44;97526.41;;;2.35;76.77
76609;BME280;65928;53.936;27.540;2023-01-31T07:47:09;97219.78;;;0.37;77.17
76609;BME280;65928;53.936;27.540;2023-01-31T07:49:35;97150.72;;;0.12;76.57
76609;BME280;65928;53.936;27.540;2023-01-31T07:52:01;97155.91;;;0.12;76.29
76609;BME280;65928;53.936;27.540;2023-01-31T07:54:26;97167.19;;;0.11;76.33
76609;BME280;65928;53.936;27.540;2023-01-31T07:56:51;97248.44;;;0.99;75.75
76609;BME280;65928;53.936;27.540;2023-01-31T07:59:17;97170.28;;;0.82;74.74
76609;BME280;65928;53.936;27.540;2023-01-31T08:01:43;97169.38;;;1.03;73.85
76609;BME280;65928;53.936;27.540;2023-01-31T08:04:26;97552.09;;;3.21;73.76
76609;BME280;65928;53.936;27.540;2023-01-31T08:06:53;97628.63;;;3.60;73.80
76609;BME280;65928;53.936;27.540;2023-01-31T08:09:20;97640.63;;;3.83;73.16
76609;BME280;65928;53.936;27.540;2023-01-31T08:11:45;97333.13;;;1.66;73.37
76609;BME280;65928;53.936;27.540;2023-01-31T08:14:11;97664.25;;;3.43;73.51
76609;BME280;65928;53.936;27.540;2023-01-31T08:16:36;97179.47;;;0.90;73.14
76609;BME280;65928;53.936;27.540;2023-01-31T08:19:03;97652.75;;;3.65;73.70
76609;BME280;65928;53.936;27.540;2023-01-31T08:21:28;97194.03;;;0.95;73.14
76609;BME280;65928;53.936;27.540;2023-01-31T08:23:54;97220.66;;;1.00;73.01
76609;BME280;65928;53.936;27.540;2023-01-31T08:26:20;97585.88;;;3.06;73.17
76609;BME280;65928;53.936;27.540;2023-01-31T08:28:47;97187.59;;;0.83;73.36
76609;BME280;65928;53.936;27.540;2023-01-31T08:31:17;97711.75;;;3.51;73.80
76609;BME280;65928;53.936;27.540;2023-01-31T08:33:43;97676.69;;;3.56;73.61
76609;BME280;65928;53.936;27.540;2023-01-31T08:36:20;97292.56;;;1.01;73.63
76609;BME280;65928;53.936;27.540;2023-01-31T08:38:47;97575.34;;;3.07;73.45
76609;BME280;65928;53.936;27.540;2023-01-31T08:41:14;97546.25;;;3.35;72.17
76609;BME280;65928;53.936;27.540;2023-01-31T08:43:41;97722.44;;;3.65;72.63
76609;BME280;65928;53.936;27.540;2023-01-31T08:46:06;97641.97;;;3.34;72.51
76609;BME280;65928;53.936;27.540;2023-01-31T08:48:33;97170.03;;;0.68;72.07
76609;BME280;65928;53.936;27.540;2023-01-31T08:51:03;97131.56;;;0.14;72.91
76609;BME280;65928;53.936;27.540;2023-01-31T08:53:29;97696.44;;;3.62;73.57
76609;BME280;65928;53.936;27.540;2023-01-31T08:56:02;97551.34;;;2.60;73.58
76609;BME280;65928;53.936;27.540;2023-01-31T08:58:30;97707.91;;;3.78;72.61
76609;BME280;65928;53.936;27.540;2023-01-31T09:01:00;97609.09;;;2.92;73.06
76609;BME280;65928;53.936;27.540;2023-01-31T09:03:26;97261.22;;;0.83;72.53
76609;BME280;65928;53.936;27.540;2023-01-31T09:05:52;97237.16;;;0.78;72.71
76609;BME280;65928;53.936;27.540;2023-01-31T09:08:17;97258.84;;;1.19;71.26
76609;BME280;65928;53.936;27.540;2023-01-31T09:10:51;97724.44;;;4.34;71.02
76609;BME280;65928;53.936;27.540;2023-01-31T09:13:17;97366.63;;;1.54;72.43
76609;BME280;65928;53.936;27.540;2023-01-31T09:15:42;97359.63;;;1.96;71.81
76609;BME280;65928;53.936;27.540;2023-01-31T09:18:08;97719.31;;;3.57;72.77
76609;BME280;65928;53.936;27.540;2023-01-31T09:20:33;97716.44;;;3.43;73.07
76609;BME280;65928;53.936;27.540;2023-01-31T09:22:59;97502.47;;;2.65;71.27
76609;BME280;65928;53.936;27.540;2023-01-31T09:25:24;97587.72;;;2.63;72.92
76609;BME280;65928;53.936;27.540;2023-01-31T09:27:51;97735.41;;;4.05;72.87
76609;BME280;65928;53.936;27.540;2023-01-31T09:30:17;97733.53;;;3.70;72.65
76609;BME280;65928;53.936;27.540;2023-01-31T09:32:43;97632.97;;;3.41;72.73
76609;BME280;65928;53.936;27.540;2023-01-31T09:35:10;97285.91;;;1.35;72.23
76609;BME280;65928;53.936;27.540;2023-01-31T09:37:35;97568.22;;;2.92;71.97
76609;BME280;65928;53.936;27.540;2023-01-31T09:40:03;97603.53;;;3.19;71.65
76609;BME280;65928;53.936;27.540;2023-01-31T09:42:35;97628.06;;;3.73;70.26
76609;BME280;65928;53.936;27.540;2023-01-31T09:48:17;97721.25;;;3.91;69.93
76609;BME280;65928;53.936;27.540;2023-01-31T09:50:55;97282.88;;;1.85;68.88
76609;BME280;65928;53.936;27.540;2023-01-31T09:53:28;97739.94;;;4.75;68.35
76609;BME280;65928;53.936;27.540;2023-01-31T10:04:38;97760.41;;;4.48;68.79
76609;BME280;65928;53.936;27.540;2023-01-31T10:07:15;97393.19;;;2.02;70.06
76609;BME280;65928;53.936;27.540;2023-01-31T10:12:50;97753.72;;;3.85;71.24
76609;BME280;65928;53.936;27.540;2023-01-31T10:18:00;97404.19;;;1.89;71.45
76609;BME280;65928;53.936;27.540;2023-01-31T10:20:39;97809.63;;;4.01;72.04
76609;BME280;65928;53.936;27.540;2023-01-31T10:23:22;97386.53;;;1.35;73.03
76609;BME280;65928;53.936;27.540;2023-01-31T10:28:21;97828.19;;;3.75;73.12
76609;BME280;65928;53.936;27.540;2023-01-31T10:33:27;97460.41;;;1.31;75.77
76609;BME280;65928;53.936;27.540;2023-01-31T10:35:56;97464.00;;;1.28;76.50
76609;BME280;65928;53.936;27.540;2023-01-31T10:38:34;97314.34;;;0.55;75.44
76609;BME280;65928;53.936;27.540;2023-01-31T10:41:14;97779.41;;;2.95;75.57
76609;BME280;65928;53.936;27.540;2023-01-31T10:43:52;97770.47;;;3.21;75.85
76609;BME280;65928;53.936;27.540;2023-01-31T10:46:21;97657.63;;;2.34;75.89
76609;BME280;65928;53.936;27.540;2023-01-31T10:48:47;97685.09;;;2.62;75.59
76609;BME280;65928;53.936;27.540;2023-01-31T10:51:32;97794.25;;;3.35;74.97
76609;BME280;65928;53.936;27.540;2023-01-31T10:54:05;97785.81;;;3.08;74.59
76609;BME280;65928;53.936;27.540;2023-01-31T10:56:41;97711.84;;;2.67;74.01
76609;BME280;65928;53.936;27.540;2023-01-31T10:59:35;97787.47;;;3.31;73.83
76609;BME280;65928;53.936;27.540;2023-01-31T11:02:01;97322.94;;;0.78;72.47
76609;BME280;65928;53.936;27.540;2023-01-31T11:04:33;97429.84;;;0.93;72.44
76609;BME280;65928;53.936;27.540;2023-01-31T11:07:02;97617.72;;;2.32;73.17
76609;BME280;65928;53.936;27.540;2023-01-31T11:09:35;97394.69;;;0.82;72.23
76609;BME280;65928;53.936;27.540;2023-01-31T11:12:04;97803.66;;;3.39;71.72
76609;BME280;65928;53.936;27.540;2023-01-31T11:14:30;97328.28;;;0.75;70.44
76609;BME280;65928;53.936;27.540;2023-01-31T11:19:43;97824.16;;;3.28;71.56
76609;BME280;65928;53.936;27.540;2023-01-31T11:22:28;97326.78;;;0.68;70.66
76609;BME280;65928;53.936;27.540;2023-01-31T11:24:56;97639.22;;;2.79;70.75
76609;BME280;65928;53.936;27.540;2023-01-31T11:27:36;97798.19;;;3.45;70.38
76609;BME280;65928;53.936;27.540;2023-01-31T11:30:04;97358.44;;;0.79;71.27
76609;BME280;65928;53.936;27.540;2023-01-31T11:32:34;97417.97;;;1.29;70.00
76609;BME280;65928;53.936;27.540;2023-01-31T11:35:05;97781.88;;;3.99;69.55
76609;BME280;65928;53.936;27.540;2023-01-31T11:40:36;97805.81;;;3.70;70.27
76609;BME280;65928;53.936;27.540;2023-01-31T11:43:25;97808.75;;;3.42;70.67
76609;BME280;65928;53.936;27.540;2023-01-31T11:45:59;97546.19;;;2.19;70.00
76609;BME280;65928;53.936;27.540;2023-01-31T11:48:43;97339.44;;;0.99;69.64
76609;BME280;65928;53.936;27.540;2023-01-31T11:51:09;97298.66;;;1.00;69.41
76609;BME280;65928;53.936;27.540;2023-01-31T11:56:13;97554.53;;;2.27;69.83
76609;BME280;65928;53.936;27.540;2023-01-31T11:58:40;97726.09;;;3.21;70.41
76609;BME280;65928;53.936;27.540;2023-01-31T12:01:15;97419.16;;;1.22;70.54
76609;BME280;65928;53.936;27.540;2023-01-31T12:03:46;97747.97;;;2.77;72.88
76609;BME280;65928;53.936;27.540;2023-01-31T12:06:26;97795.09;;;2.72;74.36
76609;BME280;65928;53.936;27.540;2023-01-31T12:08:54;97343.13;;;0.27;75.89
76609;BME280;65928;53.936;27.540;2023-01-31T12:13:46;97825.69;;;3.12;75.12
76609;BME280;65928;53.936;27.540;2023-01-31T12:16:12;97789.78;;;2.75;75.02
76609;BME280;65928;53.936;27.540;2023-01-31T12:19:03;97526.03;;;1.16;75.29
76609;BME280;65928;53.936;27.540;2023-01-31T12:24:27;97841.72;;;2.81;75.66
76609;BME280;65928;53.936;27.540;2023-01-31T12:38:42;97855.16;;;2.92;72.53
76609;BME280;65928;53.936;27.540;2023-01-31T12:46:50;97823.44;;;3.24;70.35
76609;BME280;65928;53.936;27.540;2023-01-31T13:00:58;97854.25;;;3.56;69.54
76609;BME280;65928;53.936;27.540;2023-01-31T13:06:52;97366.75;;;-0.04;70.16
76609;BME280;65928;53.936;27.540;2023-01-31T13:09:23;97887.69;;;3.05;70.85
76609;BME280;65928;53.936;27.540;2023-01-31T13:14:28;97605.53;;;1.69;69.24
76609;BME280;65928;53.936;27.540;2023-01-31T13:16:59;97856.50;;;3.02;69.96
76609;BME280;65928;53.936;27.540;2023-01-31T13:19:31;97383.69;;;0.53;68.67
76609;BME280;65928;53.936;27.540;2023-01-31T13:21:59;97875.31;;;3.32;69.40
76609;BME280;65928;53.936;27.540;2023-01-31T13:24:32;97950.06;;;3.11;69.63
76609;BME280;65928;53.936;27.540;2023-01-31T13:27:05;97954.91;;;3.22;69.84
76609;BME280;65928;53.936;27.540;2023-01-31T13:29:42;97532.13;;;1.15;69.40
76609;BME280;65928;53.936;27.540;2023-01-31T13:32:13;97961.25;;;3.15;70.07
76609;BME280;65928;53.936;27.540;2023-01-31T13:34:48;97395.53;;;0.38;69.52
76609;BME280;65928;53.936;27.540;2023-01-31T13:37:16;97402.03;;;0.27;70.14
76609;BME280;65928;53.936;27.540;2023-01-31T13:39:57;97391.16;;;0.16;69.40
76609;BME280;65928;53.936;27.540;2023-01-31T13:42:25;97415.72;;;0.07;70.01
76609;BME280;65928;53.936;27.540;2023-01-31T13:44:51;97406.56;;;-0.03;70.02
76609;BME280;65928;53.936;27.540;2023-01-31T13:47:27;97039.81;;;-2.15;70.31
76609;BME280;65928;53.936;27.540;2023-01-31T13:50:01;97387.09;;;0.32;69.49
76609;BME280;65928;53.936;27.540;2023-01-31T13:52:30;97897.09;;;3.31;69.82
76609;BME280;65928;53.936;27.540;2023-01-31T13:55:05;97828.28;;;2.68;69.68
76609;BME280;65928;53.936;27.540;2023-01-31T13:57:35;97867.25;;;2.95;70.56
76609;BME280;65928;53.936;27.540;2023-01-31T14:03:02;97801.38;;;2.23;71.10
76609;BME280;65928;53.936;27.540;2023-01-31T14:08:29;97950.50;;;3.44;69.16
76609;BME280;65928;53.936;27.540;2023-01-31T14:10:57;97897.59;;;2.97;70.24
76609;BME280;65928;53.936;27.540;2023-01-31T14:15:52;97866.50;;;2.69;70.39
76609;BME280;65928;53.936;27.540;2023-01-31T14:18:44;97885.28;;;2.33;70.84
76609;BME280;65928;53.936;27.540;2023-01-31T14:23:54;97876.94;;;2.46;70.69
76609;BME280;65928;53.936;27.540;2023-01-31T14:26:49;97560.56;;;0.73;69.99
76609;BME280;65928;53.936;27.540;2023-01-31T14:29:21;97923.41;;;2.82;70.16
76609;BME280;65928;53.936;27.540;2023-01-31T14:31:49;97922.16;;;2.68;70.63
76609;BME280;65928;53.936;27.540;2023-01-31T14:54:32;97993.28;;;2.24;72.18
76609;BME280;65928;53.936;27.540;2023-01-31T14:57:15;97957.59;;;2.26;71.97
76609;BME280;65928;53.936;27.540;2023-01-31T15:04:59;97644.31;;;0.56;71.96
76609;BME280;65928;53.936;27.540;2023-01-31T15:07:26;97470.81;;;-0.62;71.79
76609;BME280;65928;53.936;27.540;2023-01-31T15:09:52;97959.03;;;2.10;73.08
76609;BME280;65928;53.936;27.540;2023-01-31T15:12:51;97984.81;;;2.18;72.71
76609;BME280;65928;53.936;27.540;2023-01-31T15:15:30;97472.03;;;-0.73;72.44
76609;BME280;65928;53.936;27.540;2023-01-31T15:17:59;98008.25;;;2.44;72.13
76609;BME280;65928;53.936;27.540;2023-01-31T15:20:40;97574.56;;;-0.07;72.34
76609;BME280;65928;53.936;27.540;2023-01-31T15:23:18;97692.91;;;0.54;72.25
76609;BME280;65928;53.936;27.540;2023-01-31T15:25:46;97836.94;;;1.52;72.33
76609;BME280;65928;53.936;27.540;2023-01-31T15:28:14;97499.59;;;-0.69;73.15
76609;BME280;65928;53.936;27.540;2023-01-31T15:30:42;97504.25;;;-0.27;71.82
76609;BME280;65928;53.936;27.540;2023-01-31T15:33:28;97990.69;;;2.24;72.00